FW1683 Weather Reports


Display with metric or nautical units.
time (UTC)temp
F
wind
direction
speed
MPH
gust
MPH
rain 1hr
in
rain 24hr
in
rain mn
in
humidity
%
barometer
mb
20220703183004 82 23 2.0 6.0 0.00 0.00 0.00 54 1007.7
20220703182004 82 23 3.0 5.0 0.00 0.00 0.00 55 1007.8
20220703181003 83 23 4.0 9.0 0.00 0.00 0.00 52 1007.3
20220703180005 83 23 4.0 9.0 0.00 0.00 0.00 53 1007.4
20220703175004 81 35 5.0 10.0 0.00 0.00 0.00 54 1007.5
20220703174003 81 101 4.0 7.0 0.00 0.00 0.00 54 1007.5
20220703173003 81 23 5.0 11.0 0.00 0.00 0.00 53 1007.5
20220703172004 81 20 6.0 12.0 0.00 0.00 0.00 52 1007.4
20220703171004 81 52 6.0 10.0 0.00 0.00 0.00 51 1007.8
20220703170004 81 29 5.0 10.0 0.00 0.00 0.00 51 1007.8
20220703165004 82 23 4.0 10.0 0.00 0.00 0.00 50 1008.3
20220703164005 82 23 4.0 9.0 0.00 0.00 0.00 49 1008.4
20220703163004 82 101 5.0 10.0 0.00 0.00 0.00 50 1008.4
20220703162003 83 93 4.0 9.0 0.00 0.00 0.00 50 1008.6
20220703161003 83 23 6.0 11.0 0.00 0.00 0.00 48 1008.4
20220703160004 84 23 4.0 9.0 0.00 0.00 0.00 50 1008.4
20220703155004 84 58 6.0 11.0 0.00 0.00 0.00 49 1008.4
20220703154004 84 106 5.0 10.0 0.00 0.00 0.00 49 1008.5
20220703153004 84 65 7.0 13.0 0.00 0.00 0.00 50 1008.4
20220703152003 84 62 8.0 17.0 0.00 0.00 0.00 50 1008.2
20220703151005 84 84 9.0 19.0 0.00 0.00 0.00 52 1007.8
20220703150003 82 116 10.0 17.0 0.00 0.00 0.00 57 1008.5
20220703145004 83 104 9.0 16.0 0.00 0.00 0.00 52 1008.4
20220703144004 84 88 7.0 13.0 0.00 0.00 0.00 50 1008.5
20220703143004 86 48 8.0 12.0 0.00 0.00 0.00 46 1008.9
20220703142003 87 60 8.0 15.0 0.00 0.00 0.00 48 1008.9
20220703141003 86 72 7.0 13.0 0.00 0.00 0.00 50 1009.0
20220703140003 86 55 8.0 15.0 0.00 0.00 0.00 51 1009.1
20220703135004 84 102 6.0 11.0 0.00 0.00 0.00 56 1009.2
20220703134004 85 100 7.0 12.0 0.00 0.00 0.00 59 1009.3
20220703133004 82 108 7.0 12.0 0.00 0.00 0.00 62 1009.1
20220703132003 84 93 7.0 14.0 0.00 0.00 0.00 58 1009.3
20220703131004 83 86 7.0 13.0 0.00 0.00 0.00 65 1009.2
20220703130003 85 75 9.0 19.0 0.00 0.00 0.00 63 1009.0
20220703125003 84 87 9.0 18.0 0.00 0.00 0.00 64 1008.9
20220703124004 84 73 9.0 21.0 0.00 0.00 0.00 69 1009.0
20220703123003 84 90 10.0 19.0 0.00 0.00 0.00 69 1009.1
20220703122005 84 114 8.0 14.0 0.00 0.00 0.00 66 1009.2
20220703121004 83 113 8.0 14.0 0.00 0.00 0.00 64 1009.4
20220703120005 84 98 8.0 17.0 0.00 0.00 0.00 64 1009.4
20220703115003 83 101 9.0 16.0 0.00 0.00 0.00 72 1009.4
20220703114004 84 89 8.0 14.0 0.00 0.00 0.00 71 1009.5
20220703113003 85 70 7.0 15.0 0.00 0.00 0.00 66 1009.8
20220703112003 83 88 8.0 14.0 0.00 0.00 0.00 69 1009.9
20220703111004 84 61 7.0 15.0 0.00 0.00 0.00 69 1009.9
20220703110005 85 45 8.0 18.0 0.00 0.00 0.00 68 1009.8
20220703105004 84 103 6.0 13.0 0.00 0.00 0.00 65 1009.8
20220703104005 85 24 5.0 12.0 0.00 0.00 0.00 63 1009.8
20220703103004 84 73 7.0 13.0 0.00 0.00 0.00 67 1009.5
20220703102003 82 96 5.0 11.0 0.00 0.00 0.00 66 1009.7
20220703101004 84 25 4.0 11.0 0.00 0.00 0.00 66 1010.1
20220703100004 85 61 5.0 10.0 0.00 0.00 0.00 64 1010.0
20220703095005 82 121 6.0 14.0 0.00 0.00 0.00 65 1009.6
20220703094003 81 125 6.0 11.0 0.00 0.00 0.00 66 1009.6
20220703093004 82 117 6.0 18.0 0.00 0.00 0.00 67 1009.3
20220703092004 82 136 6.0 14.0 0.00 0.00 0.00 65 1009.2
20220703091004 81 150 5.0 10.0 0.00 0.00 0.00 67 1009.5
20220703090003 81 139 5.0 11.0 0.00 0.00 0.00 67 1009.1
20220703085004 80 149 6.0 11.0 0.00 0.00 0.00 65 1009.0
20220703084004 80 155 6.0 13.0 0.00 0.00 0.00 70 1009.0
20220703083004 80 117 6.0 13.0 0.00 0.00 0.00 66 1009.1
20220703082003 80 136 5.0 11.0 0.00 0.00 0.00 67 1008.8
20220703081003 80 131 4.0 9.0 0.00 0.00 0.00 68 1009.1
20220703080003 80 157 4.0 8.0 0.00 0.00 0.00 69 1009.3
20220703075004 80 334 3.0 7.0 0.00 0.00 0.00 65 1009.4
20220703074004 80 293 2.0 6.0 0.00 0.00 0.00 62 1009.3
20220703073005 80 293 2.0 4.0 0.00 0.00 0.00 64 1009.3
20220703072004 78 293 1.0 4.0 0.00 0.00 0.00 69 1009.4
20220703071003 77 293 1.0 3.0 0.00 0.00 0.00 73 1009.4
20220703070003 76 293 2.0 6.0 0.00 0.00 0.00 78 1009.3
20220703065002 75 293 3.0 6.0 0.00 0.00 0.00 82 1009.6
20220703064004 74 293 2.0 4.0 0.00 0.00 0.00 83 1009.3
20220703063004 73 293 4.0 7.0 0.00 0.00 0.00 86 1009.0
20220703062003 73 293 2.0 6.0 0.00 0.00 0.00 89 1009.0
20220703061003 72 293 1.0 5.0 0.00 0.00 0.00 91 1009.0
20220703060003 71 293 2.0 4.0 0.00 0.00 0.00 94 1009.2
20220703055003 71 293 2.0 4.0 0.00 0.00 0.00 99 1009.1
20220703054003 70 293 1.0 3.0 0.00 0.00 0.00 100 1009.0
20220703053004 70 293 1.0 3.0 0.00 0.00 0.00 100 1009.0
20220703052004 70 293 1.0 3.0 0.00 0.00 0.00 100 1008.8
20220703051004 70 293 0.0 2.0 0.00 0.00 0.00 100 1008.7
20220703050003 70 293 1.0 2.0 0.00 0.00 0.00 100 1008.6
20220703045004 69 294 2.0 5.0 0.00 0.00 0.00 100 1008.7
20220703044003 70 293 2.0 3.0 0.00 0.00 0.00 100 1008.6
20220703043004 71 293 1.0 4.0 0.00 0.00 0.00 100 1008.5
20220703042004 71 293 1.0 4.0 0.00 0.00 0.00 100 1008.4
20220703041005 71 293 1.0 4.0 0.00 0.00 0.00 100 1008.3
20220703040003 71 293 3.0 7.0 0.00 0.00 0.00 100 1008.3
20220703035003 71 309 3.0 9.0 0.00 0.00 0.00 100 1008.1
20220703034004 71 312 2.0 5.0 0.00 0.00 0.00 100 1008.4
20220703033003 71 313 2.0 5.0 0.00 0.00 0.00 100 1008.6
20220703032006 71 314 1.0 3.0 0.00 0.00 0.00 100 1008.5
20220703031003 71 315 2.0 5.0 0.00 0.00 0.00 100 1008.7
20220703030004 71 311 1.0 3.0 0.00 0.00 0.00 100 1008.5
20220703025007 71 313 1.0 4.0 0.00 0.00 0.00 100 1009.0
20220703024004 70 314 1.0 3.0 0.00 0.00 0.00 100 1008.9
20220703023003 71 314 2.0 5.0 0.00 0.00 0.00 100 1009.2
20220703022006 72 312 2.0 6.0 0.00 0.00 0.00 100 1009.3
20220703021004 72 313 2.0 5.0 0.00 0.00 0.00 100 1009.1
20220703020004 72 314 3.0 5.0 0.00 0.00 0.00 100 1009.3
20220703015006 72 314 1.0 3.0 0.00 0.00 0.00 100 1009.6
20220703014003 71 312 2.0 4.0 0.00 0.00 0.00 100 1009.8
20220703013004 71 313 2.0 4.0 0.00 0.00 0.00 100 1009.9
20220703012003 71 314 2.0 4.0 0.00 0.00 0.00 100 1009.7
20220703011003 71 314 2.0 4.0 0.00 0.00 0.00 100 1009.9
20220703010005 71 313 2.0 4.0 0.00 0.00 0.00 100 1010.1
20220703005003 72 314 2.0 4.0 0.00 0.00 0.00 100 1010.1
20220703004005 73 313 2.0 5.0 0.00 0.00 0.00 100 1010.2
20220703003003 73 314 2.0 4.0 0.00 0.00 0.00 100 1010.0
20220703002003 73 313 2.0 4.0 0.00 0.00 0.00 100 1010.1
20220703001007 73 314 3.0 5.0 0.00 0.00 0.00 100 1010.3
20220703000005 73 315 3.0 6.0 0.00 0.00 0.00 100 1010.2
20220702235003 74 313 2.0 5.0 0.00 0.00 0.00 100 1010.3
20220702234005 74 313 3.0 6.0 0.00 0.00 0.00 100 1010.3
20220702233004 74 313 4.0 7.0 0.00 0.00 0.00 100 1010.3
20220702232003 74 314 5.0 6.0 0.00 0.00 0.00 100 1010.5
20220702231004 74 47 4.0 7.0 0.00 0.00 0.00 100 1010.6
20220702223003 74 158 2.0 3.0 0.00 0.00 0.00 100 1011.0
20220702222006 74 158 1.0 3.0 0.00 0.00 0.00 100 1010.9
20220702221003 74 158 1.0 3.0 0.00 0.00 0.00 100 1010.9
20220702220004 74 158 2.0 3.0 0.00 0.00 0.00 100 1010.9
20220702215003 75 158 1.0 3.0 0.00 0.00 0.00 100 1010.8
20220702214005 74 158 2.0 3.0 0.00 0.00 0.00 100 1010.7
20220702213005 74 158 2.0 3.0 0.00 0.00 0.00 100 1010.8
20220702212003 74 158 1.0 3.0 0.00 0.00 0.00 100 1010.7
20220702211005 74 158 2.0 3.0 0.00 0.00 0.00 100 1010.7
20220702210005 74 158 2.0 3.0 0.00 0.00 0.00 100 1010.7
20220702205003 74 158 1.0 3.0 0.00 0.00 0.00 100 1010.5
20220702204003 75 158 2.0 5.0 0.00 0.00 0.00 100 1010.6
20220702203004 75 158 3.0 6.0 0.00 0.00 0.00 100 1010.5
20220702202004 75 159 3.0 8.0 0.00 0.00 0.00 100 1010.5
20220702201004 75 203 3.0 7.0 0.00 0.00 0.00 100 1010.4
20220702200003 75 181 3.0 8.0 0.00 0.00 0.00 100 1010.1
20220702195003 76 154 4.0 7.0 0.00 0.00 0.00 97 1010.1
20220702194003 76 158 3.0 8.0 0.00 0.00 0.00 91 1009.9
20220702193003 76 153 4.0 11.0 0.00 0.00 0.00 88 1009.9
20220702192004 77 157 5.0 9.0 0.00 0.00 0.00 85 1009.8
20220702191004 77 148 5.0 9.0 0.00 0.00 0.00 81 1009.6
20220702190004 77 147 4.0 8.0 0.00 0.00 0.00 80 1009.5
20220702185004 78 113 4.0 9.0 0.00 0.00 0.00 74 1009.4
20220702184005 78 112 5.0 9.0 0.00 0.00 0.00 66 1009.5